• Join FlightAware (Why Join?)
  • Login
  • US Flag 
07:05PM EDT


 

Airport Tracker/Info


-or-


 

Live Flight TrackerFlight Track Log ✈ CES5426 ✈ 31-Jan-2014 ✈ ZUCK / CKG - ZSSS / SHA

Flight Track Log - Related Links

Times and Time Zones

All times are in EST time to prevent confusion due to time zone crossing. See the CES5426 flight status page for this flight to view local times or setup timezone preferences in your user account.

Time Position Orientation Groundspeed Altitude Reporting Facility
EST Latitude Longitude Course Direction KTS MPH feet Rate Location/Type
05:03AM 30.1938 109.8957 80° East  Level Estimated
05:04AM 30.2135 110.0443 81° East  Level Estimated
05:05AM 30.2330 110.1930 81° East  Level Estimated
05:06AM 30.2523 110.3418 81° East  Level Estimated
05:07AM 30.2715 110.4907 81° East  Level Estimated
05:08AM 30.2904 110.6395 82° East  Level Estimated
05:09AM 30.3092 110.7885 82° East  Level Estimated
05:10AM 30.3279 110.9375 82° East  Level Estimated
05:11AM 30.3464 111.0866 82° East  Level Estimated
05:12AM 30.3647 111.2357 82° East  Level Estimated
05:13AM 30.3828 111.3849 82° East  Level Estimated
05:14AM 30.4008 111.5341 82° East  Level Estimated
05:15AM 30.4186 111.6834 82° East  Level Estimated
05:16AM 30.4362 111.8327 82° East  Level Estimated
05:17AM 30.4537 111.9821 82° East  Level Estimated
05:18AM 30.4710 112.1316 82° East  Level Estimated
05:19AM 30.4881 112.2811 82° East  Level Estimated
05:20AM 30.5050 112.4306 82° East  Level Estimated
05:21AM 30.5218 112.5802 83° East  Level Estimated
05:22AM 30.5384 112.7299 83° East  Level Estimated
05:23AM 30.5549 112.8796 83° East  Level Estimated
05:24AM 30.5711 113.0293 83° East  Level Estimated
05:25AM 30.5872 113.1791 83° East  Level Estimated
05:26AM 30.6031 113.3290 83° East  Level Estimated
05:27AM 30.6189 113.4789 83° East  Level Estimated
05:28AM 30.6345 113.6288 83° East  Level Estimated
05:29AM 30.6499 113.7788 83° East  Level Estimated
05:30AM 30.6651 113.9289 83° East  Level Estimated
05:31AM 30.6801 114.0790 83° East  Level Estimated
05:32AM 30.6950 114.2291 83° East  Level Estimated
05:33AM 30.7097 114.3793 83° East  Level Estimated
05:34AM 30.7243 114.5295 84° East  Level Estimated
05:35AM 30.7387 114.6798 84° East  Level Estimated
05:36AM 30.7529 114.8301 84° East  Level Estimated
05:37AM 30.7669 114.9805 84° East  Level Estimated
05:38AM 30.7807 115.1309 84° East  Level Estimated
05:39AM 30.7944 115.2814 84° East  Level Estimated
05:40AM 30.8079 115.4319 84° East  Level Estimated
05:41AM 30.8212 115.5824 84° East  Level Estimated
05:42AM 30.8344 115.7330 84° East  Level Estimated
05:43AM 30.8474 115.8836 84° East  Level Estimated
05:44AM 30.8602 116.0343 84° East  Level Estimated
05:45AM 30.8728 116.1850 84° East  Level Estimated
05:46AM 30.8853 116.3357 84° East  Level Estimated
05:47AM 30.8975 116.4865 85° East  Level Estimated
05:48AM 30.9096 116.6373 85° East  Level Estimated
05:49AM 30.9216 116.7882 85° East  Level Estimated
05:50AM 30.9333 116.9391 85° East  Level Estimated
05:51AM 30.9449 117.0900 85° East  Level Estimated
05:52AM 30.9563 117.2410 85° East  Level Estimated
05:53AM 30.9675 117.3920 85° East  Level Estimated
05:54AM 30.9786 117.5430 85° East  Level Estimated
05:55AM 30.9895 117.6941 85° East  Level Estimated
05:56AM 31.0002 117.8452 85° East  Level Estimated
05:57AM 31.0107 117.9963 85° East  Level Estimated
05:58AM 31.0210 118.1475 85° East  Level Estimated
05:59AM 31.0312 118.2987 85° East  Level Estimated
06:00AM 31.0412 118.4499 86° East  Level Estimated
06:01AM 31.0510 118.6012 86° East  Level Estimated
06:02AM 31.0607 118.7525 86° East  Level Estimated
06:03AM 31.0702 118.9038 86° East  Level Estimated
06:04AM 31.0795 119.0552 86° East  Level Estimated
06:05AM 31.0886 119.2066 86° East  Level Estimated
06:06AM 31.0975 119.3580 86° East  Level Estimated
06:07AM 31.1063 119.5095 86° East  Level Estimated
06:08AM 31.1148 119.6609 86° East  Level Estimated
06:09AM 31.1232 119.8124 86° East  Level Estimated
06:10AM 31.1315 119.9640 86° East  Level Estimated
06:11AM 31.1395 120.1155 86° East  Level Estimated
06:12AM 31.1474 120.2671 86° East  Level Estimated
06:13AM 31.1551 120.4187 87° East  Level Estimated
06:14AM 31.1626 120.5703 87° East  Level Estimated
06:15AM 31.1700 120.7220 87° East  Level Estimated
06:16AM 31.1771 120.8736 87° East  Level Estimated
06:17AM 31.1841 121.0254 87° East  Level Estimated
06:18AM 31.1909 121.1771 87° East  Level Estimated
06:19AM 31.1975 121.3288 87° East  Level Estimated
06:20AM 31.1979 121.3363 87° East  Level Estimated
06:21AM 31.1979 121.3363 350° North  Level Estimated
06:22AM 31.1979 121.3363 350° North  Level Estimated
06:23AM 31.1979 121.3363 350° North  Level Estimated
06:24AM 31.1979 121.3363 350° North  Level Estimated
06:25AM 31.1979 121.3363 350° North  Level Estimated
06:26AM 31.1979 121.3363 350° North  Level Estimated
06:27AM 31.1979 121.3363 350° North  Level Estimated
06:28AM 31.1979 121.3363 350° North  Level Estimated
06:29AM 31.1979 121.3363 350° North  Level Estimated
06:30AM 31.1979 121.3363 350° North  Level Estimated
06:31AM 31.1979 121.3363 350° North  Level Estimated
06:32AM 31.1979 121.3363 350° North  Level Estimated
06:33AM 31.1979 121.3363 350° North  Level Estimated
06:34AM 31.1979 121.3363 350° North  Level Estimated
06:35AM 31.1979 121.3363 350° North  Level Estimated